sensor_id;sensor_type;location;lat;lon;timestamp;temperature;humidity
44435;DHT22;30138;20.964;105.830;2024-02-15T00:02:52;23.50;99.90
44435;DHT22;30138;20.964;105.830;2024-02-15T00:08:01;23.50;99.90
44435;DHT22;30138;20.964;105.830;2024-02-15T00:13:09;23.50;99.90
44435;DHT22;30138;20.964;105.830;2024-02-15T00:18:16;23.50;99.90
44435;DHT22;30138;20.964;105.830;2024-02-15T00:23:23;23.50;99.90
44435;DHT22;30138;20.964;105.830;2024-02-15T00:28:32;23.50;99.90
44435;DHT22;30138;20.964;105.830;2024-02-15T00:33:38;23.50;99.90
44435;DHT22;30138;20.964;105.830;2024-02-15T00:38:45;23.50;99.90
44435;DHT22;30138;20.964;105.830;2024-02-15T00:43:53;23.50;99.90
44435;DHT22;30138;20.964;105.830;2024-02-15T00:48:59;23.50;99.90
44435;DHT22;30138;20.964;105.830;2024-02-15T00:54:06;23.50;99.90
44435;DHT22;30138;20.964;105.830;2024-02-15T00:59:14;23.50;99.90
44435;DHT22;30138;20.964;105.830;2024-02-15T01:04:21;23.50;99.90
44435;DHT22;30138;20.964;105.830;2024-02-15T01:09:27;23.50;99.90
44435;DHT22;30138;20.964;105.830;2024-02-15T01:14:37;23.50;99.90
44435;DHT22;30138;20.964;105.830;2024-02-15T01:19:43;23.50;99.90
44435;DHT22;30138;20.964;105.830;2024-02-15T01:24:50;23.50;99.90
44435;DHT22;30138;20.964;105.830;2024-02-15T01:29:58;23.50;99.90
44435;DHT22;30138;20.964;105.830;2024-02-15T01:35:05;23.50;99.90
44435;DHT22;30138;20.964;105.830;2024-02-15T01:40:13;23.50;99.90
44435;DHT22;30138;20.964;105.830;2024-02-15T01:45:24;23.50;99.90
44435;DHT22;30138;20.964;105.830;2024-02-15T01:50:30;23.50;99.90
44435;DHT22;30138;20.964;105.830;2024-02-15T01:55:38;23.50;99.90
44435;DHT22;30138;20.964;105.830;2024-02-15T02:00:48;23.50;99.90
44435;DHT22;30138;20.964;105.830;2024-02-15T02:05:55;23.50;99.90
44435;DHT22;30138;20.964;105.830;2024-02-15T02:11:03;23.50;99.90
44435;DHT22;30138;20.964;105.830;2024-02-15T02:16:26;23.50;99.90
44435;DHT22;30138;20.964;105.830;2024-02-15T02:21:32;23.50;99.90
44435;DHT22;30138;20.964;105.830;2024-02-15T02:26:41;23.50;99.90
44435;DHT22;30138;20.964;105.830;2024-02-15T02:31:48;23.50;99.90
44435;DHT22;30138;20.964;105.830;2024-02-15T02:36:55;23.50;99.90
44435;DHT22;30138;20.964;105.830;2024-02-15T02:42:03;23.50;99.90
44435;DHT22;30138;20.964;105.830;2024-02-15T02:47:11;23.50;99.90
44435;DHT22;30138;20.964;105.830;2024-02-15T02:52:17;23.50;99.90
44435;DHT22;30138;20.964;105.830;2024-02-15T02:57:26;23.50;99.90
44435;DHT22;30138;20.964;105.830;2024-02-15T03:02:35;23.50;99.90
44435;DHT22;30138;20.964;105.830;2024-02-15T03:07:41;23.50;99.90
44435;DHT22;30138;20.964;105.830;2024-02-15T03:12:52;23.50;99.90
44435;DHT22;30138;20.964;105.830;2024-02-15T03:17:59;23.50;99.90
44435;DHT22;30138;20.964;105.830;2024-02-15T03:23:09;23.50;99.90
44435;DHT22;30138;20.964;105.830;2024-02-15T03:28:18;23.60;99.90
44435;DHT22;30138;20.964;105.830;2024-02-15T03:33:27;23.60;99.90
44435;DHT22;30138;20.964;105.830;2024-02-15T03:38:37;23.60;99.90
44435;DHT22;30138;20.964;105.830;2024-02-15T03:43:46;23.60;99.90
44435;DHT22;30138;20.964;105.830;2024-02-15T03:48:52;23.60;99.90
44435;DHT22;30138;20.964;105.830;2024-02-15T03:54:01;23.60;99.90
44435;DHT22;30138;20.964;105.830;2024-02-15T03:59:09;23.60;99.90
44435;DHT22;30138;20.964;105.830;2024-02-15T04:04:15;23.60;99.90
44435;DHT22;30138;20.964;105.830;2024-02-15T04:09:24;23.60;99.90
44435;DHT22;30138;20.964;105.830;2024-02-15T04:14:33;23.60;99.90
44435;DHT22;30138;20.964;105.830;2024-02-15T04:19:41;23.60;99.90
44435;DHT22;30138;20.964;105.830;2024-02-15T04:24:49;23.60;99.90
44435;DHT22;30138;20.964;105.830;2024-02-15T04:29:57;23.60;99.90
44435;DHT22;30138;20.964;105.830;2024-02-15T04:35:06;23.60;99.90
44435;DHT22;30138;20.964;105.830;2024-02-15T04:40:13;23.60;99.90
44435;DHT22;30138;20.964;105.830;2024-02-15T04:45:23;23.60;99.90
44435;DHT22;30138;20.964;105.830;2024-02-15T04:50:30;23.60;99.90
44435;DHT22;30138;20.964;105.830;2024-02-15T04:55:36;23.60;99.90
44435;DHT22;30138;20.964;105.830;2024-02-15T05:00:44;23.60;99.90
44435;DHT22;30138;20.964;105.830;2024-02-15T05:05:56;23.60;99.90
44435;DHT22;30138;20.964;105.830;2024-02-15T05:11:02;23.60;99.90
44435;DHT22;30138;20.964;105.830;2024-02-15T05:16:11;23.60;99.90
44435;DHT22;30138;20.964;105.830;2024-02-15T05:21:19;23.60;99.90
44435;DHT22;30138;20.964;105.830;2024-02-15T05:26:26;23.60;99.90
44435;DHT22;30138;20.964;105.830;2024-02-15T05:31:33;23.60;99.90
44435;DHT22;30138;20.964;105.830;2024-02-15T05:36:41;23.60;99.90
44435;DHT22;30138;20.964;105.830;2024-02-15T05:41:47;23.70;99.90
44435;DHT22;30138;20.964;105.830;2024-02-15T05:46:56;23.70;99.90
44435;DHT22;30138;20.964;105.830;2024-02-15T05:52:03;23.70;99.90
44435;DHT22;30138;20.964;105.830;2024-02-15T05:57:11;23.70;99.90
44435;DHT22;30138;20.964;105.830;2024-02-15T06:02:21;23.80;99.90
44435;DHT22;30138;20.964;105.830;2024-02-15T06:07:27;23.80;99.90
44435;DHT22;30138;20.964;105.830;2024-02-15T06:12:34;23.80;99.90
44435;DHT22;30138;20.964;105.830;2024-02-15T06:17:43;23.80;99.90
44435;DHT22;30138;20.964;105.830;2024-02-15T06:22:52;23.70;99.90
44435;DHT22;30138;20.964;105.830;2024-02-15T06:27:58;23.80;99.90
44435;DHT22;30138;20.964;105.830;2024-02-15T06:33:17;23.80;99.90
44435;DHT22;30138;20.964;105.830;2024-02-15T06:38:52;23.70;99.90
44435;DHT22;30138;20.964;105.830;2024-02-15T06:44:15;23.70;99.90
44435;DHT22;30138;20.964;105.830;2024-02-15T06:49:24;23.80;99.90
44435;DHT22;30138;20.964;105.830;2024-02-15T06:54:30;23.80;99.90
44435;DHT22;30138;20.964;105.830;2024-02-15T06:59:37;23.80;99.90
44435;DHT22;30138;20.964;105.830;2024-02-15T07:04:45;23.80;99.90
44435;DHT22;30138;20.964;105.830;2024-02-15T07:09:55;23.80;99.90
44435;DHT22;30138;20.964;105.830;2024-02-15T07:15:03;23.80;99.90
44435;DHT22;30138;20.964;105.830;2024-02-15T07:20:13;23.90;99.90
44435;DHT22;30138;20.964;105.830;2024-02-15T07:25:20;23.80;99.90
44435;DHT22;30138;20.964;105.830;2024-02-15T07:30:27;23.80;99.90
44435;DHT22;30138;20.964;105.830;2024-02-15T07:35:36;23.80;99.90
44435;DHT22;30138;20.964;105.830;2024-02-15T07:40:45;23.90;99.90
44435;DHT22;30138;20.964;105.830;2024-02-15T07:45:52;23.90;99.90
44435;DHT22;30138;20.964;105.830;2024-02-15T07:51:01;23.90;99.90
44435;DHT22;30138;20.964;105.830;2024-02-15T07:56:09;23.80;99.90
44435;DHT22;30138;20.964;105.830;2024-02-15T08:01:16;23.80;99.90
44435;DHT22;30138;20.964;105.830;2024-02-15T08:06:29;23.90;99.90
44435;DHT22;30138;20.964;105.830;2024-02-15T08:11:36;23.90;99.90
44435;DHT22;30138;20.964;105.830;2024-02-15T08:16:43;23.90;99.90
44435;DHT22;30138;20.964;105.830;2024-02-15T08:21:51;23.90;99.90
44435;DHT22;30138;20.964;105.830;2024-02-15T08:26:58;23.90;99.90
44435;DHT22;30138;20.964;105.830;2024-02-15T08:32:04;23.90;99.90
44435;DHT22;30138;20.964;105.830;2024-02-15T08:37:14;23.90;99.90
44435;DHT22;30138;20.964;105.830;2024-02-15T08:42:21;23.90;99.90
44435;DHT22;30138;20.964;105.830;2024-02-15T08:47:28;23.90;99.90
44435;DHT22;30138;20.964;105.830;2024-02-15T08:52:37;23.90;99.90
44435;DHT22;30138;20.964;105.830;2024-02-15T08:57:45;23.90;99.90
44435;DHT22;30138;20.964;105.830;2024-02-15T09:02:51;23.90;99.90
44435;DHT22;30138;20.964;105.830;2024-02-15T09:07:59;23.90;99.90
44435;DHT22;30138;20.964;105.830;2024-02-15T09:13:07;23.90;99.90
44435;DHT22;30138;20.964;105.830;2024-02-15T09:18:13;23.90;99.90
44435;DHT22;30138;20.964;105.830;2024-02-15T09:23:28;23.90;99.90
44435;DHT22;30138;20.964;105.830;2024-02-15T09:28:35;23.90;99.90
44435;DHT22;30138;20.964;105.830;2024-02-15T09:33:43;23.90;99.90
44435;DHT22;30138;20.964;105.830;2024-02-15T09:38:52;23.90;99.90
44435;DHT22;30138;20.964;105.830;2024-02-15T09:43:59;23.90;99.90
44435;DHT22;30138;20.964;105.830;2024-02-15T09:49:06;23.90;99.90
44435;DHT22;30138;20.964;105.830;2024-02-15T09:54:15;23.90;99.90
44435;DHT22;30138;20.964;105.830;2024-02-15T09:59:25;23.90;99.90
44435;DHT22;30138;20.964;105.830;2024-02-15T10:04:31;23.90;99.90
44435;DHT22;30138;20.964;105.830;2024-02-15T10:09:40;23.90;99.90
44435;DHT22;30138;20.964;105.830;2024-02-15T10:14:49;24.00;99.90
44435;DHT22;30138;20.964;105.830;2024-02-15T10:20:05;23.90;99.90
44435;DHT22;30138;20.964;105.830;2024-02-15T10:25:15;23.90;99.90
44435;DHT22;30138;20.964;105.830;2024-02-15T10:30:22;23.90;99.90
44435;DHT22;30138;20.964;105.830;2024-02-15T10:35:28;23.90;99.90
44435;DHT22;30138;20.964;105.830;2024-02-15T10:40:41;23.90;99.90
44435;DHT22;30138;20.964;105.830;2024-02-15T10:45:49;23.90;99.90
44435;DHT22;30138;20.964;105.830;2024-02-15T10:51:00;23.90;99.90
44435;DHT22;30138;20.964;105.830;2024-02-15T10:56:15;23.90;99.90
44435;DHT22;30138;20.964;105.830;2024-02-15T11:01:46;23.90;99.90
44435;DHT22;30138;20.964;105.830;2024-02-15T11:06:55;23.90;99.90
44435;DHT22;30138;20.964;105.830;2024-02-15T11:12:05;23.90;99.90
44435;DHT22;30138;20.964;105.830;2024-02-15T11:17:46;23.90;99.90
44435;DHT22;30138;20.964;105.830;2024-02-15T11:22:57;23.90;99.90
44435;DHT22;30138;20.964;105.830;2024-02-15T11:28:39;23.90;99.90
44435;DHT22;30138;20.964;105.830;2024-02-15T11:33:47;23.90;99.90
44435;DHT22;30138;20.964;105.830;2024-02-15T11:38:53;23.90;99.90
44435;DHT22;30138;20.964;105.830;2024-02-15T11:44:01;23.90;99.90
44435;DHT22;30138;20.964;105.830;2024-02-15T11:49:15;23.90;99.90
44435;DHT22;30138;20.964;105.830;2024-02-15T11:54:22;23.80;99.90
44435;DHT22;30138;20.964;105.830;2024-02-15T11:59:30;23.90;99.90
44435;DHT22;30138;20.964;105.830;2024-02-15T12:04:56;23.80;99.90
44435;DHT22;30138;20.964;105.830;2024-02-15T12:10:31;23.80;99.90
44435;DHT22;30138;20.964;105.830;2024-02-15T12:16:01;23.80;99.90
44435;DHT22;30138;20.964;105.830;2024-02-15T12:21:25;23.80;99.90
44435;DHT22;30138;20.964;105.830;2024-02-15T12:26:33;23.80;99.90
44435;DHT22;30138;20.964;105.830;2024-02-15T12:31:44;23.80;99.90
44435;DHT22;30138;20.964;105.830;2024-02-15T12:37:05;23.80;99.90
44435;DHT22;30138;20.964;105.830;2024-02-15T12:42:13;23.80;99.90
44435;DHT22;30138;20.964;105.830;2024-02-15T12:47:22;23.80;99.90
44435;DHT22;30138;20.964;105.830;2024-02-15T12:52:37;23.80;99.90
44435;DHT22;30138;20.964;105.830;2024-02-15T12:57:47;23.80;99.90
44435;DHT22;30138;20.964;105.830;2024-02-15T13:02:57;23.80;99.90
44435;DHT22;30138;20.964;105.830;2024-02-15T13:08:05;23.80;99.90
44435;DHT22;30138;20.964;105.830;2024-02-15T13:13:16;23.80;99.90
44435;DHT22;30138;20.964;105.830;2024-02-15T13:18:26;23.70;99.90
44435;DHT22;30138;20.964;105.830;2024-02-15T13:23:33;23.80;99.90
44435;DHT22;30138;20.964;105.830;2024-02-15T13:28:39;23.80;99.90
44435;DHT22;30138;20.964;105.830;2024-02-15T13:33:49;23.80;99.90
44435;DHT22;30138;20.964;105.830;2024-02-15T13:38:55;23.70;99.90
44435;DHT22;30138;20.964;105.830;2024-02-15T13:44:02;23.80;99.90
44435;DHT22;30138;20.964;105.830;2024-02-15T13:49:11;23.70;99.90
44435;DHT22;30138;20.964;105.830;2024-02-15T13:54:18;23.70;99.90
44435;DHT22;30138;20.964;105.830;2024-02-15T13:59:26;23.80;99.90
44435;DHT22;30138;20.964;105.830;2024-02-15T14:04:35;23.80;99.90
44435;DHT22;30138;20.964;105.830;2024-02-15T14:09:41;23.80;99.90
44435;DHT22;30138;20.964;105.830;2024-02-15T14:14:48;23.80;99.90
44435;DHT22;30138;20.964;105.830;2024-02-15T14:19:58;23.80;99.90
44435;DHT22;30138;20.964;105.830;2024-02-15T14:25:08;23.80;99.90
44435;DHT22;30138;20.964;105.830;2024-02-15T14:30:15;23.80;99.90
44435;DHT22;30138;20.964;105.830;2024-02-15T14:35:40;23.80;99.90
44435;DHT22;30138;20.964;105.830;2024-02-15T14:40:49;23.70;99.90
44435;DHT22;30138;20.964;105.830;2024-02-15T14:45:56;23.70;99.90
44435;DHT22;30138;20.964;105.830;2024-02-15T14:51:06;23.70;99.90
44435;DHT22;30138;20.964;105.830;2024-02-15T14:56:13;23.70;99.90
44435;DHT22;30138;20.964;105.830;2024-02-15T15:01:20;23.70;99.90
44435;DHT22;30138;20.964;105.830;2024-02-15T15:06:29;23.70;99.90
44435;DHT22;30138;20.964;105.830;2024-02-15T15:11:52;23.70;99.90
44435;DHT22;30138;20.964;105.830;2024-02-15T15:17:14;23.70;99.90
44435;DHT22;30138;20.964;105.830;2024-02-15T15:22:26;23.70;99.90
44435;DHT22;30138;20.964;105.830;2024-02-15T15:27:32;23.70;99.90
44435;DHT22;30138;20.964;105.830;2024-02-15T15:32:40;23.70;99.90
44435;DHT22;30138;20.964;105.830;2024-02-15T15:37:51;23.70;99.90
44435;DHT22;30138;20.964;105.830;2024-02-15T15:42:58;23.70;99.90
44435;DHT22;30138;20.964;105.830;2024-02-15T15:48:05;23.60;99.90
44435;DHT22;30138;20.964;105.830;2024-02-15T15:53:14;23.70;99.90
44435;DHT22;30138;20.964;105.830;2024-02-15T15:58:21;23.70;99.90
44435;DHT22;30138;20.964;105.830;2024-02-15T16:03:28;23.70;99.90
44435;DHT22;30138;20.964;105.830;2024-02-15T16:08:36;23.70;99.90
44435;DHT22;30138;20.964;105.830;2024-02-15T16:13:44;23.60;99.90
44435;DHT22;30138;20.964;105.830;2024-02-15T16:18:52;23.70;99.90
44435;DHT22;30138;20.964;105.830;2024-02-15T16:24:02;23.60;99.90
44435;DHT22;30138;20.964;105.830;2024-02-15T16:29:10;23.70;99.90
44435;DHT22;30138;20.964;105.830;2024-02-15T16:34:17;23.60;99.90
44435;DHT22;30138;20.964;105.830;2024-02-15T16:39:25;23.60;99.90
44435;DHT22;30138;20.964;105.830;2024-02-15T16:44:32;23.60;99.90
44435;DHT22;30138;20.964;105.830;2024-02-15T16:49:39;23.60;99.90
44435;DHT22;30138;20.964;105.830;2024-02-15T16:54:49;23.60;99.90
44435;DHT22;30138;20.964;105.830;2024-02-15T16:59:56;23.60;99.90
44435;DHT22;30138;20.964;105.830;2024-02-15T17:05:02;23.60;99.90
44435;DHT22;30138;20.964;105.830;2024-02-15T17:10:12;23.60;99.90
44435;DHT22;30138;20.964;105.830;2024-02-15T17:15:18;23.60;99.90
44435;DHT22;30138;20.964;105.830;2024-02-15T17:20:28;23.60;99.90
44435;DHT22;30138;20.964;105.830;2024-02-15T17:25:38;23.60;99.90
44435;DHT22;30138;20.964;105.830;2024-02-15T17:30:47;23.60;99.90
44435;DHT22;30138;20.964;105.830;2024-02-15T17:35:53;23.60;99.90
44435;DHT22;30138;20.964;105.830;2024-02-15T17:41:02;23.60;99.90
44435;DHT22;30138;20.964;105.830;2024-02-15T17:46:07;23.60;99.90
44435;DHT22;30138;20.964;105.830;2024-02-15T17:51:16;23.60;99.90
44435;DHT22;30138;20.964;105.830;2024-02-15T17:56:27;23.50;99.90
44435;DHT22;30138;20.964;105.830;2024-02-15T18:01:35;23.60;99.90
44435;DHT22;30138;20.964;105.830;2024-02-15T18:06:42;23.60;99.90
44435;DHT22;30138;20.964;105.830;2024-02-15T18:11:51;23.60;99.90
44435;DHT22;30138;20.964;105.830;2024-02-15T18:16:59;23.50;99.90
44435;DHT22;30138;20.964;105.830;2024-02-15T18:22:05;23.50;99.90
44435;DHT22;30138;20.964;105.830;2024-02-15T18:27:13;23.60;99.90
44435;DHT22;30138;20.964;105.830;2024-02-15T18:32:22;23.50;99.90
44435;DHT22;30138;20.964;105.830;2024-02-15T18:37:29;23.50;99.90
44435;DHT22;30138;20.964;105.830;2024-02-15T18:42:40;23.50;99.90
44435;DHT22;30138;20.964;105.830;2024-02-15T18:47:51;23.50;99.90
44435;DHT22;30138;20.964;105.830;2024-02-15T18:52:58;23.50;99.90
44435;DHT22;30138;20.964;105.830;2024-02-15T18:58:06;23.50;99.90
44435;DHT22;30138;20.964;105.830;2024-02-15T19:03:13;23.50;99.90
44435;DHT22;30138;20.964;105.830;2024-02-15T19:08:24;23.50;99.90
44435;DHT22;30138;20.964;105.830;2024-02-15T19:13:33;23.50;99.90
44435;DHT22;30138;20.964;105.830;2024-02-15T19:18:39;23.50;99.90
44435;DHT22;30138;20.964;105.830;2024-02-15T19:23:45;23.50;99.90
44435;DHT22;30138;20.964;105.830;2024-02-15T19:28:53;23.50;99.90
44435;DHT22;30138;20.964;105.830;2024-02-15T19:34:01;23.50;99.90
44435;DHT22;30138;20.964;105.830;2024-02-15T19:39:07;23.50;99.90
44435;DHT22;30138;20.964;105.830;2024-02-15T19:44:17;23.40;99.90
44435;DHT22;30138;20.964;105.830;2024-02-15T19:49:27;23.40;99.90
44435;DHT22;30138;20.964;105.830;2024-02-15T19:54:36;23.40;99.90
44435;DHT22;30138;20.964;105.830;2024-02-15T19:59:45;23.40;99.90
44435;DHT22;30138;20.964;105.830;2024-02-15T20:04:52;23.40;99.90
44435;DHT22;30138;20.964;105.830;2024-02-15T20:09:59;23.40;99.90
44435;DHT22;30138;20.964;105.830;2024-02-15T20:15:09;23.40;99.90
44435;DHT22;30138;20.964;105.830;2024-02-15T20:20:17;23.40;99.90
44435;DHT22;30138;20.964;105.830;2024-02-15T20:25:23;23.40;99.90
44435;DHT22;30138;20.964;105.830;2024-02-15T20:30:32;23.40;99.90
44435;DHT22;30138;20.964;105.830;2024-02-15T20:35:40;23.40;99.90
44435;DHT22;30138;20.964;105.830;2024-02-15T20:40:47;23.40;99.90
44435;DHT22;30138;20.964;105.830;2024-02-15T20:45:55;23.40;99.90
44435;DHT22;30138;20.964;105.830;2024-02-15T20:51:03;23.40;99.90
44435;DHT22;30138;20.964;105.830;2024-02-15T20:56:11;23.40;99.90
44435;DHT22;30138;20.964;105.830;2024-02-15T21:01:19;23.40;99.90
44435;DHT22;30138;20.964;105.830;2024-02-15T21:06:26;23.40;99.90
44435;DHT22;30138;20.964;105.830;2024-02-15T21:11:35;23.40;99.90
44435;DHT22;30138;20.964;105.830;2024-02-15T21:16:43;23.40;99.90
44435;DHT22;30138;20.964;105.830;2024-02-15T21:21:51;23.40;99.90
44435;DHT22;30138;20.964;105.830;2024-02-15T21:26:57;23.40;99.90
44435;DHT22;30138;20.964;105.830;2024-02-15T21:32:06;23.40;99.90
44435;DHT22;30138;20.964;105.830;2024-02-15T21:37:16;23.30;99.90
44435;DHT22;30138;20.964;105.830;2024-02-15T21:42:27;23.40;99.90
44435;DHT22;30138;20.964;105.830;2024-02-15T21:47:37;23.40;99.90
44435;DHT22;30138;20.964;105.830;2024-02-15T21:52:46;23.30;99.90
44435;DHT22;30138;20.964;105.830;2024-02-15T21:57:53;23.30;99.90
44435;DHT22;30138;20.964;105.830;2024-02-15T22:03:02;23.30;99.90
44435;DHT22;30138;20.964;105.830;2024-02-15T22:08:10;23.30;99.90
44435;DHT22;30138;20.964;105.830;2024-02-15T22:13:19;23.30;99.90
44435;DHT22;30138;20.964;105.830;2024-02-15T22:18:29;23.30;99.90
44435;DHT22;30138;20.964;105.830;2024-02-15T22:23:36;23.30;99.90
44435;DHT22;30138;20.964;105.830;2024-02-15T22:28:43;23.30;99.90
44435;DHT22;30138;20.964;105.830;2024-02-15T22:33:51;23.30;99.90
44435;DHT22;30138;20.964;105.830;2024-02-15T22:38:58;23.30;99.90
44435;DHT22;30138;20.964;105.830;2024-02-15T22:44:06;23.30;99.90
44435;DHT22;30138;20.964;105.830;2024-02-15T22:49:15;23.30;99.90
44435;DHT22;30138;20.964;105.830;2024-02-15T22:54:22;23.30;99.90
44435;DHT22;30138;20.964;105.830;2024-02-15T22:59:28;23.30;99.90
44435;DHT22;30138;20.964;105.830;2024-02-15T23:04:37;23.30;99.90
44435;DHT22;30138;20.964;105.830;2024-02-15T23:09:44;23.20;99.90
44435;DHT22;30138;20.964;105.830;2024-02-15T23:14:50;23.30;99.90
44435;DHT22;30138;20.964;105.830;2024-02-15T23:19:59;23.30;99.90
44435;DHT22;30138;20.964;105.830;2024-02-15T23:25:07;23.30;99.90
44435;DHT22;30138;20.964;105.830;2024-02-15T23:30:14;23.30;99.90
44435;DHT22;30138;20.964;105.830;2024-02-15T23:35:23;23.30;99.90
44435;DHT22;30138;20.964;105.830;2024-02-15T23:40:34;23.30;99.90
44435;DHT22;30138;20.964;105.830;2024-02-15T23:45:40;23.30;99.90
44435;DHT22;30138;20.964;105.830;2024-02-15T23:50:48;23.20;99.90
44435;DHT22;30138;20.964;105.830;2024-02-15T23:55:55;23.30;99.90
